Time;durP1;ratioP1;P1;durP2;ratioP2;P2;SDS_P1;SDS_P2;PMS_P1;PMS_P2;Temp;Humidity;BMP_temperature;BMP_pressure;BME280_temperature;BME280_humidity;BME280_pressure;Samples;Min_cycle;Max_cycle;Signal;HPM_P1;HPM_P2
2021/05/01 00:00:14;;;;;;;11.95;8.27;;;11.40;99.90;;;;;;4971609;28;20066;-65
2021/05/01 00:02:39;;;;;;;12.15;8.27;;;11.40;99.90;;;;;;4965684;28;20015;-67
2021/05/01 00:05:06;;;;;;;12.48;8.07;;;11.40;99.90;;;;;;4972660;28;20053;-66
2021/05/01 00:07:31;;;;;;;13.32;8.02;;;11.30;99.90;;;;;;4959168;28;20058;-67
2021/05/01 00:09:57;;;;;;;12.02;8.50;;;11.40;99.90;;;;;;4972943;28;20086;-67
2021/05/01 00:12:23;;;;;;;13.00;8.55;;;11.40;99.90;;;;;;4962637;28;20027;-67
2021/05/01 00:14:48;;;;;;;13.65;8.23;;;11.40;99.90;;;;;;4973254;28;20031;-67
2021/05/01 00:17:14;;;;;;;12.80;8.30;;;11.30;99.90;;;;;;4966648;28;20015;-67
2021/05/01 00:19:40;;;;;;;10.82;8.50;;;11.30;99.90;;;;;;4972895;28;20033;-67
2021/05/01 00:22:05;;;;;;;13.57;8.70;;;11.30;99.90;;;;;;4965852;28;20039;-66
2021/05/01 00:24:31;;;;;;;16.50;10.00;;;11.40;99.90;;;;;;4972590;28;20450;-67
2021/05/01 00:26:57;;;;;;;14.65;8.80;;;11.30;99.90;;;;;;4966593;28;20027;-66
2021/05/01 00:29:22;;;;;;;15.18;9.60;;;11.30;99.90;;;;;;4972945;28;20043;-67
2021/05/01 00:31:48;;;;;;;11.90;8.82;;;11.20;99.90;;;;;;4964149;28;20086;-67
2021/05/01 00:34:14;;;;;;;12.23;8.73;;;11.30;99.90;;;;;;4972457;28;20019;-66
2021/05/01 00:36:40;;;;;;;16.95;9.65;;;11.30;99.90;;;;;;4963832;28;20043;-67
2021/05/01 00:39:06;;;;;;;12.75;9.07;;;11.30;99.90;;;;;;4969780;28;20035;-67
2021/05/01 00:41:32;;;;;;;18.17;10.13;;;11.20;99.90;;;;;;4968102;28;20110;-66
2021/05/01 00:43:58;;;;;;;16.77;9.57;;;11.20;99.90;;;;;;4969322;28;20022;-67
2021/05/01 00:46:24;;;;;;;14.00;9.52;;;11.20;99.90;;;;;;4963516;28;20031;-66
2021/05/01 00:48:50;;;;;;;16.23;9.35;;;11.20;99.90;;;;;;4972540;28;20031;-65
2021/05/01 00:51:16;;;;;;;16.58;10.10;;;11.20;99.90;;;;;;4968245;28;20501;-67
2021/05/01 00:53:41;;;;;;;16.55;10.27;;;11.00;99.90;;;;;;4970623;28;20019;-67
2021/05/01 00:56:07;;;;;;;17.88;10.13;;;11.10;99.90;;;;;;4967984;28;20027;-67
2021/05/01 00:58:33;;;;;;;21.83;10.30;;;11.10;99.90;;;;;;4961399;28;20031;-67
2021/05/01 01:03:32;;;;;;;20.98;10.70;;;11.10;99.90;;;;;;4965557;28;20029;-67
2021/05/01 01:05:58;;;;;;;20.73;10.82;;;11.10;99.90;;;;;;4968840;28;20503;-67
2021/05/01 01:08:24;;;;;;;17.40;10.48;;;11.10;99.90;;;;;;4967830;28;20015;-66
2021/05/01 01:10:50;;;;;;;21.92;10.55;;;11.10;99.90;;;;;;4965531;28;20051;-67
2021/05/01 01:13:16;;;;;;;16.98;10.90;;;11.10;99.90;;;;;;4970363;28;20074;-67
2021/05/01 01:15:42;;;;;;;15.48;10.40;;;11.00;99.90;;;;;;4968631;28;20035;-66
2021/05/01 01:18:08;;;;;;;18.52;10.77;;;10.80;99.90;;;;;;4969177;28;20023;-66
2021/05/01 01:20:33;;;;;;;16.65;11.65;;;10.90;99.90;;;;;;4969616;28;20090;-66
2021/05/01 01:22:59;;;;;;;19.23;12.05;;;11.00;99.90;;;;;;4963647;28;20505;-65
2021/05/01 01:25:25;;;;;;;24.60;12.32;;;10.90;99.90;;;;;;4970001;28;20545;-66
2021/05/01 01:27:51;;;;;;;20.98;11.93;;;10.80;99.90;;;;;;4963239;28;20065;-66
2021/05/01 01:30:19;;;;;;;16.40;11.95;;;10.80;99.90;;;;;;4970011;28;20070;-65
2021/05/01 01:32:45;;;;;;;18.55;11.90;;;10.80;99.90;;;;;;4969681;28;20073;-66
2021/05/01 01:35:13;;;;;;;22.45;12.65;;;10.80;99.90;;;;;;4970444;28;20129;-66
2021/05/01 01:37:42;;;;;;;21.42;12.52;;;10.80;99.90;;;;;;4963783;28;20015;-67
2021/05/01 01:40:10;;;;;;;25.13;13.63;;;10.70;99.90;;;;;;4970908;28;20030;-66
2021/05/01 01:42:37;;;;;;;19.45;13.43;;;10.60;99.90;;;;;;4962590;28;20081;-66
2021/05/01 01:45:04;;;;;;;22.40;13.93;;;10.60;99.90;;;;;;4968736;28;20506;-66
2021/05/01 01:47:30;;;;;;;17.83;14.65;;;10.50;99.90;;;;;;4966922;28;20034;-66
2021/05/01 01:49:55;;;;;;;22.27;14.68;;;10.50;99.90;;;;;;4971443;28;20035;-67
2021/05/01 01:52:21;;;;;;;20.80;14.85;;;10.40;99.90;;;;;;4965554;28;20113;-66
2021/05/01 01:54:47;;;;;;;18.38;14.65;;;10.50;99.90;;;;;;4968826;28;20026;-67
2021/05/01 01:57:12;;;;;;;22.20;15.75;;;10.40;99.90;;;;;;4964707;28;20585;-66
2021/05/01 01:59:38;;;;;;;25.35;15.27;;;10.60;99.90;;;;;;4966983;28;20058;-66
2021/05/01 02:02:04;;;;;;;28.30;16.52;;;10.50;99.90;;;;;;4964985;28;20403;-66
2021/05/01 02:04:30;;;;;;;21.75;17.30;;;10.30;99.90;;;;;;4971290;28;20048;-66
2021/05/01 02:06:55;;;;;;;23.38;17.63;;;10.20;99.90;;;;;;4964603;28;20027;-66
2021/05/01 02:09:21;;;;;;;22.15;16.73;;;10.20;99.90;;;;;;4970702;28;20030;-66
2021/05/01 02:11:47;;;;;;;21.20;17.80;;;10.20;99.90;;;;;;4964680;28;20038;-66
2021/05/01 02:14:12;;;;;;;25.13;18.45;;;10.00;99.90;;;;;;4971348;28;20029;-66
2021/05/01 02:16:38;;;;;;;20.33;17.05;;;9.90;99.90;;;;;;4961805;28;20026;-66
2021/05/01 02:19:04;;;;;;;19.80;17.88;;;10.00;99.90;;;;;;4970813;28;20077;-66
2021/05/01 02:21:30;;;;;;;20.42;18.23;;;10.00;99.90;;;;;;4964870;28;20030;-66
2021/05/01 02:23:56;;;;;;;20.65;18.55;;;9.90;99.90;;;;;;4970597;28;20026;-67
2021/05/01 02:26:21;;;;;;;25.15;18.38;;;9.80;99.90;;;;;;4964669;28;20031;-66
2021/05/01 02:28:47;;;;;;;25.40;18.48;;;10.10;99.90;;;;;;4970934;28;20102;-65
2021/05/01 02:31:13;;;;;;;22.73;18.73;;;9.90;99.90;;;;;;4964566;28;20035;-65
2021/05/01 02:33:38;;;;;;;21.33;18.58;;;9.80;99.90;;;;;;4970498;28;20625;-66
2021/05/01 02:36:05;;;;;;;23.33;19.25;;;9.80;99.90;;;;;;4963820;28;20027;-66
2021/05/01 02:38:31;;;;;;;26.00;19.05;;;9.80;99.90;;;;;;4968373;28;20416;-67
2021/05/01 02:40:57;;;;;;;27.80;19.23;;;9.70;99.90;;;;;;4966002;28;20040;-66
2021/05/01 02:43:22;;;;;;;25.92;19.27;;;9.80;99.90;;;;;;4969546;28;20031;-66
2021/05/01 02:45:49;;;;;;;26.77;20.17;;;9.80;99.90;;;;;;4966885;28;20042;-66
2021/05/01 02:48:15;;;;;;;24.90;20.20;;;9.70;99.90;;;;;;4964689;28;20030;-66
2021/05/01 02:50:41;;;;;;;26.15;19.98;;;9.70;99.90;;;;;;4966562;28;20135;-67
2021/05/01 02:53:07;;;;;;;21.65;19.63;;;9.70;99.90;;;;;;4968128;28;20106;-66
2021/05/01 02:55:33;;;;;;;20.67;18.55;;;9.70;99.90;;;;;;4971118;28;20031;-67
2021/05/01 02:57:59;;;;;;;22.70;20.17;;;9.80;99.90;;;;;;4962690;28;20452;-67
2021/05/01 03:00:26;;;;;;;21.63;19.42;;;9.70;99.90;;;;;;4972587;28;20117;-66
2021/05/01 03:02:53;;;;;;;26.15;19.65;;;9.60;99.90;;;;;;4970101;28;20042;-65
2021/05/01 03:05:20;;;;;;;22.23;18.85;;;9.60;99.90;;;;;;4972474;28;20415;-66
2021/05/01 03:07:45;;;;;;;23.08;20.02;;;9.60;99.90;;;;;;4970273;28;20030;-65
2021/05/01 03:10:18;;;;;;;21.55;19.55;;;9.60;99.90;;;;;;4970587;28;20051;-66
2021/05/01 03:12:43;;;;;;;25.10;20.58;;;9.60;99.90;;;;;;4971295;28;20022;-66
2021/05/01 03:15:11;;;;;;;23.15;20.42;;;9.80;99.90;;;;;;4969329;28;20913;-66
2021/05/01 03:17:37;;;;;;;23.00;20.50;;;9.70;99.90;;;;;;4971398;28;20368;-67
2021/05/01 03:20:04;;;;;;;22.08;19.77;;;9.80;99.90;;;;;;4967644;28;20081;-66
2021/05/01 03:22:30;;;;;;;27.05;20.67;;;9.90;99.90;;;;;;4970262;28;20034;-66
2021/05/01 03:24:56;;;;;;;20.92;18.77;;;9.80;99.90;;;;;;4955642;28;20102;-66
2021/05/01 03:27:22;;;;;;;21.88;19.65;;;9.90;99.90;;;;;;4962974;28;20106;-66
2021/05/01 03:29:48;;;;;;;25.13;21.58;;;9.80;99.90;;;;;;4958539;28;20042;-66
2021/05/01 03:32:14;;;;;;;22.33;19.92;;;9.70;99.90;;;;;;4969363;28;20031;-66
2021/05/01 03:34:40;;;;;;;25.15;20.73;;;9.80;99.90;;;;;;4961979;28;20050;-67
2021/05/01 03:37:06;;;;;;;27.08;20.65;;;9.70;99.90;;;;;;4959200;28;20031;-66
2021/05/01 03:39:31;;;;;;;24.20;21.60;;;9.60;99.90;;;;;;4955243;28;20031;-66
2021/05/01 03:41:58;;;;;;;24.42;20.48;;;9.50;99.90;;;;;;4957355;28;20061;-66
2021/05/01 03:44:23;;;;;;;27.23;21.73;;;9.60;99.90;;;;;;4957697;28;20423;-66
2021/05/01 03:46:49;;;;;;;22.80;20.40;;;9.60;99.90;;;;;;4973638;28;20031;-67
2021/05/01 03:49:15;;;;;;;23.33;20.85;;;9.50;99.90;;;;;;4975521;28;20110;-67
2021/05/01 03:51:40;;;;;;;23.33;20.83;;;9.60;99.90;;;;;;4973175;28;20034;-67
2021/05/01 03:54:06;;;;;;;22.17;19.60;;;9.70;99.90;;;;;;4958026;28;20027;-67
2021/05/01 03:56:33;;;;;;;25.70;19.30;;;9.60;99.90;;;;;;4960099;28;20109;-66
2021/05/01 03:58:59;;;;;;;28.00;20.83;;;9.70;99.90;;;;;;4959025;28;20109;-66
2021/05/01 04:01:24;;;;;;;21.65;19.50;;;9.60;99.90;;;;;;4958975;28;20499;-67
2021/05/01 04:03:50;;;;;;;22.40;19.25;;;9.70;99.90;;;;;;4966292;28;20015;-67
2021/05/01 04:06:15;;;;;;;26.80;20.55;;;9.60;99.90;;;;;;4966875;28;20031;-66
2021/05/01 04:08:41;;;;;;;21.52;19.25;;;9.50;99.90;;;;;;4972724;28;20121;-67
2021/05/01 04:11:07;;;;;;;22.33;19.98;;;9.60;99.90;;;;;;4966685;28;20178;-67
2021/05/01 04:13:32;;;;;;;25.23;19.42;;;9.60;99.90;;;;;;4967913;28;20023;-66
2021/05/01 04:15:59;;;;;;;21.88;19.27;;;9.40;99.90;;;;;;4956406;28;20031;-67
2021/05/01 04:18:25;;;;;;;29.65;20.67;;;9.60;99.90;;;;;;4962227;28;20034;-67
2021/05/01 04:20:50;;;;;;;23.83;21.27;;;9.60;99.90;;;;;;4955992;28;20404;-66
2021/05/01 04:23:16;;;;;;;30.23;22.10;;;9.50;99.90;;;;;;4962270;28;20591;-67
2021/05/01 04:25:42;;;;;;;27.38;21.55;;;9.60;99.90;;;;;;4956293;28;20031;-66
2021/05/01 04:28:07;;;;;;;22.85;20.10;;;9.50;99.90;;;;;;4963053;28;20031;-67
2021/05/01 04:30:33;;;;;;;23.35;20.65;;;9.50;99.90;;;;;;4955458;28;20195;-66
2021/05/01 04:32:59;;;;;;;23.35;20.75;;;9.50;99.90;;;;;;4962111;28;20078;-67
2021/05/01 04:35:25;;;;;;;24.73;22.05;;;9.40;99.90;;;;;;4954898;28;20396;-67
2021/05/01 04:37:51;;;;;;;25.98;21.58;;;9.40;99.90;;;;;;4963162;28;20019;-67
2021/05/01 04:40:17;;;;;;;29.30;21.90;;;9.40;99.90;;;;;;4956358;28;20543;-67
2021/05/01 04:42:51;;;;;;;27.25;21.88;;;9.30;99.90;;;;;;4962688;28;20459;-67
2021/05/01 04:45:17;;;;;;;24.50;21.25;;;9.50;99.90;;;;;;4953813;28;20054;-67
2021/05/01 04:47:43;;;;;;;24.08;21.58;;;9.50;99.90;;;;;;4967949;28;20035;-67
2021/05/01 04:50:13;;;;;;;25.27;21.98;;;9.50;99.90;;;;;;4961698;28;20034;-67
2021/05/01 04:52:39;;;;;;;29.27;20.52;;;9.50;99.90;;;;;;4961680;28;20598;-66
2021/05/01 04:55:25;;;;;;;25.15;22.48;;;9.30;99.90;;;;;;4960415;28;20488;-66
2021/05/01 04:57:52;;;;;;;28.58;20.98;;;9.30;99.90;;;;;;4969668;28;20485;-66
2021/05/01 05:00:18;;;;;;;23.15;20.73;;;9.30;99.90;;;;;;4959596;28;20023;-67
2021/05/01 05:02:45;;;;;;;24.33;21.88;;;9.30;99.90;;;;;;4963076;28;20061;-67
2021/05/01 05:05:13;;;;;;;22.70;20.13;;;9.10;99.90;;;;;;4963784;28;20041;-67
2021/05/01 05:07:38;;;;;;;31.63;22.77;;;9.20;99.90;;;;;;4966268;28;20061;-67
2021/05/01 05:10:06;;;;;;;27.52;23.10;;;9.30;99.90;;;;;;4956790;28;20079;-67
2021/05/01 05:12:32;;;;;;;28.75;22.77;;;9.20;99.90;;;;;;4962557;28;20058;-67
2021/05/01 05:14:58;;;;;;;28.05;23.15;;;9.30;99.90;;;;;;4961710;28;20065;-66
2021/05/01 05:17:23;;;;;;;27.75;23.33;;;9.10;99.90;;;;;;4956560;28;20053;-66
2021/05/01 05:19:49;;;;;;;24.65;21.73;;;9.20;99.90;;;;;;4969010;28;20034;-67
2021/05/01 05:22:15;;;;;;;27.55;21.75;;;9.20;99.90;;;;;;4968092;28;20023;-67
2021/05/01 05:24:41;;;;;;;23.20;20.63;;;9.20;99.90;;;;;;4952103;28;20082;-66
2021/05/01 05:27:07;;;;;;;24.15;21.10;;;9.20;99.90;;;;;;4955337;28;20015;-67
2021/05/01 05:29:34;;;;;;;28.23;21.27;;;9.20;99.90;;;;;;4952596;28;20043;-66
2021/05/01 05:31:59;;;;;;;26.42;21.42;;;9.30;99.90;;;;;;4955249;28;20016;-66
2021/05/01 05:34:25;;;;;;;21.77;19.63;;;9.00;99.90;;;;;;4958549;28;20034;-66
2021/05/01 05:36:51;;;;;;;22.42;20.10;;;9.10;99.90;;;;;;4959656;28;20027;-66
2021/05/01 05:39:17;;;;;;;25.00;21.27;;;9.10;99.90;;;;;;4965756;28;20499;-66
2021/05/01 05:41:46;;;;;;;24.08;21.65;;;9.00;99.90;;;;;;4965148;28;20030;-66
2021/05/01 05:44:11;;;;;;;24.08;21.25;;;9.00;99.90;;;;;;4955814;28;20494;-66
2021/05/01 05:46:38;;;;;;;22.80;20.50;;;9.20;99.90;;;;;;4961974;28;20162;-66
2021/05/01 05:49:04;;;;;;;24.88;20.70;;;9.30;99.90;;;;;;4965398;28;20027;-66
2021/05/01 05:51:30;;;;;;;22.58;18.52;;;9.20;99.90;;;;;;4957760;28;20035;-66
2021/05/01 05:53:56;;;;;;;21.95;19.75;;;9.40;99.90;;;;;;4966932;28;20023;-66
2021/05/01 05:56:22;;;;;;;21.23;18.85;;;9.10;99.90;;;;;;4967496;28;20027;-66
2021/05/01 05:58:48;;;;;;;22.40;20.05;;;9.10;99.90;;;;;;4965208;28;20158;-66
2021/05/01 06:01:15;;;;;;;20.75;18.70;;;9.30;99.90;;;;;;4968584;28;20027;-66
2021/05/01 06:03:44;;;;;;;19.73;17.50;;;9.20;99.90;;;;;;4962835;28;20109;-65
2021/05/01 06:06:13;;;;;;;20.83;18.25;;;9.30;99.90;;;;;;4966650;28;20184;-67
2021/05/01 06:08:39;;;;;;;21.63;19.33;;;9.40;99.90;;;;;;4969366;28;20030;-67
2021/05/01 06:11:05;;;;;;;21.05;18.85;;;9.30;99.90;;;;;;4965233;28;20047;-66
2021/05/01 06:13:33;;;;;;;22.48;18.55;;;9.20;99.90;;;;;;4968469;28;20521;-66
2021/05/01 06:16:01;;;;;;;21.23;19.13;;;9.10;99.90;;;;;;4967092;28;20045;-66
2021/05/01 06:18:32;;;;;;;22.20;19.80;;;9.30;99.90;;;;;;4958083;28;20048;-67
2021/05/01 06:20:58;;;;;;;23.15;20.98;;;9.30;99.90;;;;;;4968019;28;20121;-66
2021/05/01 06:23:24;;;;;;;23.73;21.08;;;9.40;99.90;;;;;;4969845;28;20538;-67
2021/05/01 06:25:51;;;;;;;22.15;20.05;;;9.40;99.90;;;;;;4960023;28;20047;-67
2021/05/01 06:28:17;;;;;;;23.73;21.50;;;9.30;99.90;;;;;;4964610;28;20484;-66
2021/05/01 06:30:44;;;;;;;21.17;19.08;;;9.40;99.90;;;;;;4957547;28;20035;-66
2021/05/01 06:33:12;;;;;;;22.65;20.33;;;9.40;99.90;;;;;;4961887;28;20050;-66
2021/05/01 06:35:38;;;;;;;21.40;19.42;;;9.40;99.90;;;;;;4967633;28;20042;-66
2021/05/01 06:38:05;;;;;;;23.38;20.17;;;9.40;99.90;;;;;;4967144;28;20046;-66
2021/05/01 06:40:43;;;;;;;22.23;19.98;;;9.40;99.90;;;;;;4966199;28;20037;-66
2021/05/01 06:43:24;;;;;;;23.27;20.77;;;9.50;99.90;;;;;;4964858;28;20030;-66
2021/05/01 06:45:51;;;;;;;21.17;19.00;;;9.30;99.90;;;;;;4976299;28;20082;-66
2021/05/01 06:48:25;;;;;;;21.50;19.45;;;9.30;99.90;;;;;;4964148;28;20066;-67
2021/05/01 06:50:53;;;;;;;22.15;19.95;;;9.20;99.90;;;;;;4955331;28;20070;-66
2021/05/01 06:53:29;;;;;;;26.38;19.48;;;9.20;99.90;;;;;;4964620;28;20444;-67
2021/05/01 06:55:59;;;;;;;20.80;18.15;;;9.30;99.90;;;;;;4959807;28;20027;-66
2021/05/01 06:58:25;;;;;;;23.50;19.58;;;9.30;99.90;;;;;;4963270;28;20117;-66
2021/05/01 07:00:51;;;;;;;22.38;19.15;;;9.20;99.90;;;;;;4966281;28;20449;-66
2021/05/01 07:03:21;;;;;;;21.30;19.10;;;9.00;99.90;;;;;;4963426;28;20037;-66
2021/05/01 07:05:48;;;;;;;20.08;17.95;;;9.10;99.90;;;;;;4963509;28;20085;-66
2021/05/01 07:08:14;;;;;;;22.25;17.13;;;9.10;99.90;;;;;;4954325;28;20020;-67
2021/05/01 07:10:40;;;;;;;20.63;17.88;;;8.90;99.90;;;;;;4961672;28;20059;-66
2021/05/01 07:13:12;;;;;;;23.20;18.42;;;9.00;99.90;;;;;;4966103;28;20019;-65
2021/05/01 07:15:39;;;;;;;20.17;18.08;;;9.10;99.90;;;;;;4969699;28;20436;-65
2021/05/01 07:18:05;;;;;;;21.63;18.85;;;9.00;99.90;;;;;;4961992;28;20030;-66
2021/05/01 07:20:30;;;;;;;22.77;19.40;;;9.20;99.90;;;;;;4957966;28;20035;-67
2021/05/01 07:22:56;;;;;;;19.27;17.35;;;9.20;99.90;;;;;;4963879;28;20023;-67
2021/05/01 07:25:22;;;;;;;19.73;17.80;;;9.30;99.90;;;;;;4963071;28;20026;-65
2021/05/01 07:28:12;;;;;;;21.35;18.90;;;9.10;99.90;;;;;;4959274;28;20386;-66
2021/05/01 07:30:42;;;;;;;20.80;18.63;;;9.30;99.90;;;;;;4954819;28;20035;-66
2021/05/01 07:33:29;;;;;;;24.40;18.77;;;9.40;99.90;;;;;;4964086;28;20024;-66
2021/05/01 07:36:02;;;;;;;21.02;15.90;;;9.20;99.90;;;;;;4953241;28;20031;-62
2021/05/01 07:38:30;;;;;;;18.25;16.58;;;9.10;99.90;;;;;;4960664;28;20034;-63
2021/05/01 07:40:59;;;;;;;21.67;17.65;;;9.10;99.90;;;;;;4960837;28;20019;-63
2021/05/01 07:43:26;;;;;;;20.90;16.90;;;9.30;99.90;;;;;;4964259;28;20026;-63
2021/05/01 07:45:53;;;;;;;19.65;17.58;;;9.20;99.90;;;;;;4959926;28;20028;-69
2021/05/01 07:48:20;;;;;;;23.45;18.35;;;9.30;99.90;;;;;;4964889;28;20081;-64
2021/05/01 07:50:50;;;;;;;22.13;18.05;;;9.30;99.90;;;;;;4960443;28;20047;-63
2021/05/01 07:53:15;;;;;;;22.13;17.75;;;9.10;99.90;;;;;;4962386;28;20030;-63
2021/05/01 07:55:42;;;;;;;20.00;17.83;;;9.10;99.90;;;;;;4956626;28;20035;-63
2021/05/01 07:58:08;;;;;;;20.58;18.40;;;9.20;99.90;;;;;;4965535;28;20027;-63
2021/05/01 08:00:34;;;;;;;22.60;18.38;;;9.30;99.90;;;;;;4966918;28;20369;-63
2021/05/01 08:03:01;;;;;;;20.52;18.42;;;9.40;99.90;;;;;;4958652;28;20031;-63
2021/05/01 08:05:27;;;;;;;21.65;19.50;;;9.20;99.90;;;;;;4966621;28;20514;-63
2021/05/01 08:07:53;;;;;;;23.30;17.95;;;9.40;99.90;;;;;;4959811;28;20037;-63
2021/05/01 08:10:18;;;;;;;22.50;18.98;;;9.10;99.90;;;;;;4963193;28;20043;-63
2021/05/01 08:12:44;;;;;;;22.23;19.98;;;9.30;99.90;;;;;;4955241;28;20027;-63
2021/05/01 08:15:11;;;;;;;21.58;19.13;;;9.50;99.90;;;;;;4964205;28;20031;-63
2021/05/01 08:17:38;;;;;;;24.70;17.90;;;9.70;99.90;;;;;;4966792;28;20031;-62
2021/05/01 08:20:05;;;;;;;20.42;18.33;;;9.60;99.90;;;;;;4966042;28;20035;-63
2021/05/01 08:22:30;;;;;;;21.55;18.77;;;9.50;99.90;;;;;;4968936;28;20488;-63
2021/05/01 08:24:56;;;;;;;19.10;17.27;;;9.50;99.90;;;;;;4958970;28;20030;-65
2021/05/01 08:27:22;;;;;;;24.33;17.08;;;9.30;99.90;;;;;;4967735;28;20019;-65
2021/05/01 08:29:48;;;;;;;20.95;18.75;;;9.50;99.90;;;;;;4967117;28;20075;-66
2021/05/01 08:32:17;;;;;;;21.55;17.20;;;9.60;99.90;;;;;;4967362;28;20098;-64
2021/05/01 08:34:43;;;;;;;18.80;16.73;;;9.50;99.90;;;;;;4969390;28;20031;-64
2021/05/01 08:37:09;;;;;;;20.38;17.50;;;9.60;99.90;;;;;;4962783;28;20128;-64
2021/05/01 08:39:34;;;;;;;19.95;16.95;;;9.80;99.90;;;;;;4969533;28;20039;-64
2021/05/01 08:42:00;;;;;;;20.08;17.63;;;9.70;99.90;;;;;;4966272;28;20061;-64
2021/05/01 08:44:26;;;;;;;18.60;16.63;;;9.70;99.90;;;;;;4959044;28;20061;-64
2021/05/01 08:46:52;;;;;;;25.15;19.35;;;9.70;99.90;;;;;;4958398;28;20435;-63
2021/05/01 08:49:17;;;;;;;22.30;18.45;;;9.80;99.90;;;;;;4957887;28;20040;-64
2021/05/01 08:51:44;;;;;;;20.58;18.40;;;9.70;99.90;;;;;;4955777;28;20510;-63
2021/05/01 08:54:11;;;;;;;21.58;17.48;;;9.80;99.90;;;;;;4954543;28;20031;-63
2021/05/01 08:56:38;;;;;;;19.58;17.63;;;9.80;99.90;;;;;;4958975;28;20026;-63
2021/05/01 08:59:04;;;;;;;18.83;15.90;;;9.90;99.90;;;;;;4960858;28;20570;-63
2021/05/01 09:01:30;;;;;;;20.92;17.10;;;10.00;99.90;;;;;;4963187;28;20030;-63
2021/05/01 09:03:55;;;;;;;19.08;15.73;;;9.90;99.90;;;;;;4953522;28;20034;-63
2021/05/01 09:06:23;;;;;;;19.80;17.15;;;10.00;99.90;;;;;;4959986;28;20027;-63
2021/05/01 09:08:58;;;;;;;19.35;17.30;;;9.90;99.90;;;;;;4957118;28;20024;-63
2021/05/01 09:11:45;;;;;;;18.92;17.05;;;9.90;99.90;;;;;;4960093;28;20526;-63
2021/05/01 09:14:16;;;;;;;21.30;18.23;;;10.00;99.90;;;;;;4957371;28;20038;-64
2021/05/01 09:16:42;;;;;;;19.50;17.48;;;10.10;99.90;;;;;;4956378;28;20038;-63
2021/05/01 09:19:08;;;;;;;20.27;17.15;;;10.00;99.90;;;;;;4953696;28;20047;-64
2021/05/01 09:21:34;;;;;;;20.27;17.70;;;10.00;99.90;;;;;;4960050;28;20480;-63
2021/05/01 09:24:00;;;;;;;19.40;17.25;;;9.90;99.90;;;;;;4948290;28;20031;-63
2021/05/01 09:26:41;;;;;;;20.77;17.38;;;9.90;99.90;;;;;;4958694;28;20204;-64
2021/05/01 09:29:07;;;;;;;18.77;16.83;;;10.10;99.90;;;;;;4960842;28;20447;-63
2021/05/01 09:31:45;;;;;;;22.05;16.90;;;9.90;99.90;;;;;;4965660;28;20423;-64
2021/05/01 09:34:11;;;;;;;20.52;17.65;;;9.90;99.90;;;;;;4968009;28;20105;-63
2021/05/01 09:36:38;;;;;;;19.23;17.40;;;10.10;99.90;;;;;;4963748;28;20041;-64
2021/05/01 09:39:06;;;;;;;20.92;17.63;;;10.20;99.90;;;;;;4965862;28;20019;-63
2021/05/01 09:41:37;;;;;;;21.63;18.75;;;10.10;99.90;;;;;;4960726;28;20035;-63
2021/05/01 09:44:14;;;;;;;18.95;17.08;;;10.10;99.90;;;;;;4960177;28;20081;-67
2021/05/01 09:46:41;;;;;;;20.10;17.25;;;10.00;99.90;;;;;;4966510;28;20439;-66
2021/05/01 09:49:09;;;;;;;17.80;16.00;;;10.00;99.90;;;;;;4970393;28;20011;-67
2021/05/01 09:51:48;;;;;;;21.55;17.13;;;10.00;99.90;;;;;;4964858;28;20039;-66
2021/05/01 09:54:16;;;;;;;20.45;15.60;;;10.10;99.90;;;;;;4968827;28;20088;-66
2021/05/01 09:56:43;;;;;;;17.90;16.10;;;9.80;99.90;;;;;;4960192;28;20031;-67
2021/05/01 09:59:09;;;;;;;20.05;16.83;;;10.00;99.90;;;;;;4960127;28;20027;-66
2021/05/01 10:01:36;;;;;;;18.17;15.52;;;10.10;99.90;;;;;;4964481;28;20034;-66
2021/05/01 10:04:16;;;;;;;15.35;13.85;;;10.00;99.90;;;;;;4964594;28;20031;-66
2021/05/01 10:07:02;;;;;;;17.88;15.85;;;10.00;99.90;;;;;;4959715;28;20047;-66
2021/05/01 10:09:31;;;;;;;16.08;14.40;;;10.20;99.90;;;;;;4965757;28;20059;-66
2021/05/01 10:12:14;;;;;;;15.43;14.10;;;10.10;99.90;;;;;;4966095;28;20042;-66
2021/05/01 10:14:47;;;;;;;15.80;14.30;;;10.00;99.90;;;;;;4963705;28;20038;-66
2021/05/01 10:17:23;;;;;;;15.95;14.40;;;10.20;99.90;;;;;;4963063;28;20046;-66
2021/05/01 10:19:52;;;;;;;15.57;14.02;;;9.90;99.90;;;;;;4960664;28;20608;-66
2021/05/01 10:22:29;;;;;;;15.80;14.30;;;10.10;99.90;;;;;;4961392;28;20031;-66
2021/05/01 10:25:02;;;;;;;16.00;13.90;;;10.00;99.90;;;;;;4960404;28;20035;-66
2021/05/01 10:27:39;;;;;;;17.48;14.75;;;9.90;99.90;;;;;;4965779;28;20496;-67
2021/05/01 10:30:12;;;;;;;20.48;14.00;;;10.20;99.90;;;;;;4984653;28;20488;-66
2021/05/01 10:32:43;;;;;;;14.98;13.48;;;10.10;99.90;;;;;;4959842;28;20027;-66
2021/05/01 10:35:11;;;;;;;16.05;14.50;;;9.90;99.90;;;;;;4958971;28;20621;-66
2021/05/01 10:37:42;;;;;;;17.83;15.93;;;10.10;99.90;;;;;;4958920;28;20030;-67
2021/05/01 10:40:08;;;;;;;15.10;13.57;;;10.20;99.90;;;;;;4959558;28;20031;-67
2021/05/01 10:42:34;;;;;;;15.07;13.77;;;10.10;99.90;;;;;;4960350;28;20031;-66
2021/05/01 10:45:01;;;;;;;16.20;14.55;;;10.10;99.90;;;;;;4960189;28;20118;-66
2021/05/01 10:47:27;;;;;;;17.92;13.95;;;10.30;99.90;;;;;;4956577;28;20031;-67
2021/05/01 10:49:58;;;;;;;15.95;14.23;;;10.20;99.90;;;;;;4961411;28;20607;-66
2021/05/01 10:52:24;;;;;;;16.20;14.70;;;10.20;99.90;;;;;;4959821;28;20053;-66
2021/05/01 10:55:06;;;;;;;15.25;13.25;;;10.00;99.90;;;;;;4959523;28;20015;-66
2021/05/01 10:57:35;;;;;;;19.42;15.35;;;10.10;99.90;;;;;;4957229;28;20036;-66
2021/05/01 11:00:11;;;;;;;15.88;14.25;;;10.10;99.90;;;;;;4970970;28;20019;-66
2021/05/01 11:02:39;;;;;;;17.30;15.50;;;10.40;99.90;;;;;;4964335;28;20055;-66
2021/05/01 11:05:10;;;;;;;18.73;14.00;;;10.40;99.90;;;;;;4951429;28;20051;-66
2021/05/01 11:08:31;;;;;;;16.00;14.63;;;10.30;99.90;;;;;;4961645;28;20027;-67
2021/05/01 11:10:58;;;;;;;15.77;14.38;;;10.30;99.90;;;;;;4932935;29;20083;-66
2021/05/01 11:13:29;;;;;;;12.82;11.73;;;10.20;99.90;;;;;;4939327;29;20020;-66
2021/05/01 11:16:03;;;;;;;14.75;13.52;;;10.30;99.90;;;;;;4937647;29;20098;-66
2021/05/01 11:18:34;;;;;;;16.67;15.05;;;10.70;99.90;;;;;;4944264;29;20098;-66
2021/05/01 11:21:00;;;;;;;16.10;13.52;;;10.80;99.90;;;;;;4937273;28;20023;-66
2021/05/01 11:23:30;;;;;;;16.23;12.88;;;10.60;99.90;;;;;;4949334;28;20028;-66
2021/05/01 11:25:59;;;;;;;15.57;13.98;;;10.60;99.90;;;;;;4964600;28;20027;-66
2021/05/01 11:28:25;;;;;;;16.98;14.90;;;10.50;99.90;;;;;;4944247;29;20102;-66
2021/05/01 11:30:53;;;;;;;16.15;13.82;;;10.90;99.90;;;;;;4938530;29;20070;-66
2021/05/01 11:33:21;;;;;;;18.23;14.27;;;11.10;99.90;;;;;;4951455;29;20118;-66
2021/05/01 11:35:51;;;;;;;14.40;12.90;;;11.20;99.90;;;;;;4951859;28;20035;-66
2021/05/01 11:38:24;;;;;;;14.38;13.07;;;11.20;99.90;;;;;;4943689;28;20034;-66
2021/05/01 11:40:54;;;;;;;14.73;13.23;;;11.20;99.90;;;;;;4937890;29;20027;-67
2021/05/01 11:43:24;;;;;;;15.75;13.25;;;11.30;99.90;;;;;;4943578;29;20028;-67
2021/05/01 11:46:12;;;;;;;12.52;11.30;;;11.50;99.90;;;;;;4937337;29;20020;-66
2021/05/01 11:48:46;;;;;;;12.88;11.57;;;11.30;99.90;;;;;;4947947;28;20031;-67
2021/05/01 11:51:17;;;;;;;11.77;10.68;;;11.30;99.90;;;;;;4947859;28;20039;-66
2021/05/01 11:53:47;;;;;;;11.57;10.68;;;11.20;99.90;;;;;;4943228;29;20019;-67
2021/05/01 11:56:31;;;;;;;12.27;10.82;;;11.40;99.90;;;;;;4945523;29;20031;-66
2021/05/01 11:59:14;;;;;;;12.45;11.38;;;11.40;99.90;;;;;;4947624;29;20027;-67
2021/05/01 12:02:00;;;;;;;12.98;11.70;;;11.60;99.90;;;;;;4948178;28;20035;-67
2021/05/01 12:04:48;;;;;;;17.20;13.13;;;11.90;99.90;;;;;;4937559;29;20028;-67
2021/05/01 12:07:25;;;;;;;22.98;12.05;;;12.40;99.90;;;;;;4944086;28;20058;-67
2021/05/01 12:09:53;;;;;;;13.15;11.13;;;12.70;99.90;;;;;;4939907;29;20094;-66
2021/05/01 12:12:21;;;;;;;10.68;9.82;;;12.70;99.90;;;;;;4964585;28;20038;-67
2021/05/01 12:14:48;;;;;;;16.10;11.90;;;12.40;99.90;;;;;;4963887;28;20034;-66
2021/05/01 12:17:15;;;;;;;11.73;10.70;;;12.60;99.90;;;;;;4965044;28;20117;-67
2021/05/01 12:19:46;;;;;;;10.68;9.57;;;12.80;99.90;;;;;;4954543;28;20027;-67
2021/05/01 12:22:28;;;;;;;14.63;10.45;;;12.70;99.90;;;;;;4962886;28;20042;-67
2021/05/01 12:24:54;;;;;;;12.32;9.88;;;12.80;99.90;;;;;;4953632;28;20028;-67
2021/05/01 12:27:48;;;;;;;11.25;10.40;;;12.90;99.90;;;;;;4962320;28;20117;-67
2021/05/01 12:30:39;;;;;;;11.98;10.68;;;13.00;99.90;;;;;;4962935;28;20031;-68
2021/05/01 12:33:32;;;;;;;14.05;11.50;;;13.30;99.90;;;;;;4966843;28;20475;-68
2021/05/01 12:36:06;;;;;;;11.07;9.30;;;13.50;99.90;;;;;;4964126;28;20070;-67
2021/05/01 12:38:37;;;;;;;9.77;8.75;;;13.50;99.90;;;;;;4963836;28;20031;-67
2021/05/01 12:41:06;;;;;;;10.05;9.00;;;13.50;99.90;;;;;;4964929;28;20034;-68